sensor_id;sensor_type;location;lat;lon;timestamp;P1;durP1;ratioP1;P2;durP2;ratioP2
23001;SDS011;11667;51.706;4.856;2023-02-28T00:01:29;11.77;;;6.23;;
23001;SDS011;11667;51.706;4.856;2023-02-28T00:03:59;11.73;;;5.72;;
23001;SDS011;11667;51.706;4.856;2023-02-28T00:06:29;10.00;;;5.45;;
23001;SDS011;11667;51.706;4.856;2023-02-28T00:08:58;11.80;;;5.75;;
23001;SDS011;11667;51.706;4.856;2023-02-28T00:11:28;12.90;;;5.83;;
23001;SDS011;11667;51.706;4.856;2023-02-28T00:13:58;11.48;;;5.75;;
23001;SDS011;11667;51.706;4.856;2023-02-28T00:16:27;9.73;;;5.65;;
23001;SDS011;11667;51.706;4.856;2023-02-28T00:18:57;12.05;;;6.20;;
23001;SDS011;11667;51.706;4.856;2023-02-28T00:21:26;15.03;;;5.83;;
23001;SDS011;11667;51.706;4.856;2023-02-28T00:23:56;12.98;;;6.17;;
23001;SDS011;11667;51.706;4.856;2023-02-28T00:26:26;10.08;;;5.35;;
23001;SDS011;11667;51.706;4.856;2023-02-28T00:28:55;11.10;;;5.70;;
23001;SDS011;11667;51.706;4.856;2023-02-28T00:31:24;11.93;;;5.28;;
23001;SDS011;11667;51.706;4.856;2023-02-28T00:33:54;11.57;;;5.80;;
23001;SDS011;11667;51.706;4.856;2023-02-28T00:36:23;13.40;;;5.72;;
23001;SDS011;11667;51.706;4.856;2023-02-28T00:38:53;10.75;;;5.97;;
23001;SDS011;11667;51.706;4.856;2023-02-28T00:41:22;16.93;;;6.25;;
23001;SDS011;11667;51.706;4.856;2023-02-28T00:43:52;11.38;;;6.00;;
23001;SDS011;11667;51.706;4.856;2023-02-28T00:46:21;15.75;;;6.62;;
23001;SDS011;11667;51.706;4.856;2023-02-28T00:48:50;13.80;;;6.00;;
23001;SDS011;11667;51.706;4.856;2023-02-28T00:51:20;12.03;;;5.90;;
23001;SDS011;11667;51.706;4.856;2023-02-28T00:53:49;12.40;;;6.20;;
23001;SDS011;11667;51.706;4.856;2023-02-28T00:56:20;12.65;;;6.05;;
23001;SDS011;11667;51.706;4.856;2023-02-28T00:58:49;9.43;;;5.80;;
23001;SDS011;11667;51.706;4.856;2023-02-28T01:01:18;14.00;;;6.40;;
23001;SDS011;11667;51.706;4.856;2023-02-28T01:03:48;10.48;;;5.65;;
23001;SDS011;11667;51.706;4.856;2023-02-28T01:06:18;10.95;;;5.60;;
23001;SDS011;11667;51.706;4.856;2023-02-28T01:08:47;10.00;;;5.53;;
23001;SDS011;11667;51.706;4.856;2023-02-28T01:11:17;11.73;;;5.30;;
23001;SDS011;11667;51.706;4.856;2023-02-28T01:13:47;10.00;;;5.70;;
23001;SDS011;11667;51.706;4.856;2023-02-28T01:16:16;11.00;;;5.12;;
23001;SDS011;11667;51.706;4.856;2023-02-28T01:18:46;13.15;;;5.40;;
23001;SDS011;11667;51.706;4.856;2023-02-28T01:21:17;10.35;;;5.45;;
23001;SDS011;11667;51.706;4.856;2023-02-28T01:23:47;11.45;;;5.58;;
23001;SDS011;11667;51.706;4.856;2023-02-28T01:26:23;10.60;;;5.10;;
23001;SDS011;11667;51.706;4.856;2023-02-28T01:28:49;9.23;;;5.03;;
23001;SDS011;11667;51.706;4.856;2023-02-28T01:31:20;11.20;;;5.40;;
23001;SDS011;11667;51.706;4.856;2023-02-28T01:33:51;10.63;;;5.40;;
23001;SDS011;11667;51.706;4.856;2023-02-28T01:36:21;13.90;;;5.67;;
23001;SDS011;11667;51.706;4.856;2023-02-28T01:38:52;11.05;;;5.50;;
23001;SDS011;11667;51.706;4.856;2023-02-28T01:41:23;9.20;;;5.33;;
23001;SDS011;11667;51.706;4.856;2023-02-28T01:44:01;11.43;;;5.40;;
23001;SDS011;11667;51.706;4.856;2023-02-28T01:46:36;10.65;;;5.30;;
23001;SDS011;11667;51.706;4.856;2023-02-28T01:49:11;8.50;;;4.87;;
23001;SDS011;11667;51.706;4.856;2023-02-28T01:51:41;10.90;;;4.60;;
23001;SDS011;11667;51.706;4.856;2023-02-28T01:54:22;11.68;;;5.25;;
23001;SDS011;11667;51.706;4.856;2023-02-28T01:56:54;8.53;;;5.12;;
23001;SDS011;11667;51.706;4.856;2023-02-28T01:59:27;11.70;;;5.58;;
23001;SDS011;11667;51.706;4.856;2023-02-28T02:02:05;11.03;;;5.17;;
23001;SDS011;11667;51.706;4.856;2023-02-28T02:07:24;9.75;;;4.83;;
23001;SDS011;11667;51.706;4.856;2023-02-28T02:15:22;9.00;;;5.30;;
23001;SDS011;11667;51.706;4.856;2023-02-28T02:18:04;10.15;;;5.22;;
23001;SDS011;11667;51.706;4.856;2023-02-28T02:20:38;14.95;;;5.12;;
23001;SDS011;11667;51.706;4.856;2023-02-28T02:26:06;11.20;;;5.03;;
23001;SDS011;11667;51.706;4.856;2023-02-28T02:36:52;9.30;;;5.25;;
23001;SDS011;11667;51.706;4.856;2023-02-28T02:39:39;11.93;;;5.78;;
23001;SDS011;11667;51.706;4.856;2023-02-28T02:42:12;11.88;;;5.50;;
23001;SDS011;11667;51.706;4.856;2023-02-28T02:44:48;11.83;;;5.65;;
23001;SDS011;11667;51.706;4.856;2023-02-28T02:47:23;10.05;;;5.30;;
23001;SDS011;11667;51.706;4.856;2023-02-28T02:49:55;9.60;;;5.60;;
23001;SDS011;11667;51.706;4.856;2023-02-28T02:52:32;10.18;;;5.67;;
23001;SDS011;11667;51.706;4.856;2023-02-28T02:54:59;11.97;;;5.45;;
23001;SDS011;11667;51.706;4.856;2023-02-28T02:57:31;15.30;;;5.67;;
23001;SDS011;11667;51.706;4.856;2023-02-28T03:00:05;12.70;;;5.62;;
23001;SDS011;11667;51.706;4.856;2023-02-28T03:02:36;9.85;;;5.53;;
23001;SDS011;11667;51.706;4.856;2023-02-28T03:05:19;13.03;;;5.60;;
23001;SDS011;11667;51.706;4.856;2023-02-28T03:07:43;13.90;;;5.92;;
23001;SDS011;11667;51.706;4.856;2023-02-28T03:13:09;10.13;;;5.50;;
23001;SDS011;11667;51.706;4.856;2023-02-28T03:16:05;10.32;;;5.62;;
23001;SDS011;11667;51.706;4.856;2023-02-28T03:18:13;10.13;;;5.72;;
23001;SDS011;11667;51.706;4.856;2023-02-28T03:23:38;9.73;;;5.22;;
23001;SDS011;11667;51.706;4.856;2023-02-28T03:26:17;11.68;;;6.00;;
23001;SDS011;11667;51.706;4.856;2023-02-28T03:31:46;12.23;;;5.92;;
23001;SDS011;11667;51.706;4.856;2023-02-28T03:34:20;12.47;;;5.72;;
23001;SDS011;11667;51.706;4.856;2023-02-28T03:36:57;11.78;;;6.33;;
23001;SDS011;11667;51.706;4.856;2023-02-28T03:39:29;15.83;;;6.03;;
23001;SDS011;11667;51.706;4.856;2023-02-28T03:42:10;12.23;;;5.67;;
23001;SDS011;11667;51.706;4.856;2023-02-28T03:44:45;10.43;;;5.85;;
23001;SDS011;11667;51.706;4.856;2023-02-28T03:47:31;11.63;;;5.95;;
23001;SDS011;11667;51.706;4.856;2023-02-28T03:55:34;11.43;;;6.00;;
23001;SDS011;11667;51.706;4.856;2023-02-28T03:58:10;10.40;;;5.85;;
23001;SDS011;11667;51.706;4.856;2023-02-28T04:00:40;11.35;;;6.20;;
23001;SDS011;11667;51.706;4.856;2023-02-28T04:05:53;16.35;;;6.22;;
23001;SDS011;11667;51.706;4.856;2023-02-28T04:08:23;15.15;;;6.67;;
23001;SDS011;11667;51.706;4.856;2023-02-28T04:10:57;11.70;;;5.60;;
23001;SDS011;11667;51.706;4.856;2023-02-28T04:13:33;16.40;;;6.75;;
23001;SDS011;11667;51.706;4.856;2023-02-28T04:16:06;12.43;;;6.37;;
23001;SDS011;11667;51.706;4.856;2023-02-28T04:18:39;11.25;;;6.22;;
23001;SDS011;11667;51.706;4.856;2023-02-28T04:23:41;14.40;;;6.20;;
23001;SDS011;11667;51.706;4.856;2023-02-28T04:26:10;12.82;;;6.62;;
23001;SDS011;11667;51.706;4.856;2023-02-28T04:28:39;14.10;;;6.95;;
23001;SDS011;11667;51.706;4.856;2023-02-28T04:31:08;17.62;;;6.37;;
23001;SDS011;11667;51.706;4.856;2023-02-28T04:33:39;10.75;;;6.10;;
23001;SDS011;11667;51.706;4.856;2023-02-28T04:36:08;15.15;;;6.72;;
23001;SDS011;11667;51.706;4.856;2023-02-28T04:38:38;12.68;;;6.50;;
23001;SDS011;11667;51.706;4.856;2023-02-28T04:41:07;12.53;;;6.42;;
23001;SDS011;11667;51.706;4.856;2023-02-28T04:43:37;13.80;;;7.25;;
23001;SDS011;11667;51.706;4.856;2023-02-28T04:46:07;11.70;;;6.80;;
23001;SDS011;11667;51.706;4.856;2023-02-28T04:48:38;16.30;;;7.20;;
23001;SDS011;11667;51.706;4.856;2023-02-28T04:51:09;12.68;;;7.08;;
23001;SDS011;11667;51.706;4.856;2023-02-28T04:53:41;13.20;;;7.10;;
23001;SDS011;11667;51.706;4.856;2023-02-28T04:56:12;14.33;;;7.00;;
23001;SDS011;11667;51.706;4.856;2023-02-28T04:58:42;10.75;;;6.08;;
23001;SDS011;11667;51.706;4.856;2023-02-28T05:01:24;11.00;;;5.80;;
23001;SDS011;11667;51.706;4.856;2023-02-28T05:03:56;21.93;;;10.03;;
23001;SDS011;11667;51.706;4.856;2023-02-28T05:06:27;31.12;;;14.13;;
23001;SDS011;11667;51.706;4.856;2023-02-28T05:08:58;29.10;;;14.75;;
23001;SDS011;11667;51.706;4.856;2023-02-28T05:11:32;23.92;;;11.90;;
23001;SDS011;11667;51.706;4.856;2023-02-28T05:14:10;20.40;;;8.98;;
23001;SDS011;11667;51.706;4.856;2023-02-28T05:16:35;15.80;;;8.28;;
23001;SDS011;11667;51.706;4.856;2023-02-28T05:19:04;15.63;;;7.33;;
23001;SDS011;11667;51.706;4.856;2023-02-28T05:21:34;13.85;;;7.30;;
23001;SDS011;11667;51.706;4.856;2023-02-28T05:24:11;11.45;;;6.15;;
23001;SDS011;11667;51.706;4.856;2023-02-28T05:26:41;14.00;;;6.40;;
23001;SDS011;11667;51.706;4.856;2023-02-28T05:29:11;12.33;;;6.20;;
23001;SDS011;11667;51.706;4.856;2023-02-28T05:31:40;10.28;;;6.10;;
23001;SDS011;11667;51.706;4.856;2023-02-28T05:34:09;11.60;;;5.65;;
23001;SDS011;11667;51.706;4.856;2023-02-28T05:36:40;11.60;;;6.00;;
23001;SDS011;11667;51.706;4.856;2023-02-28T05:39:09;11.43;;;6.33;;
23001;SDS011;11667;51.706;4.856;2023-02-28T05:41:41;9.13;;;6.07;;
23001;SDS011;11667;51.706;4.856;2023-02-28T05:44:11;12.03;;;5.85;;
23001;SDS011;11667;51.706;4.856;2023-02-28T05:46:41;9.18;;;5.47;;
23001;SDS011;11667;51.706;4.856;2023-02-28T05:49:10;13.08;;;5.75;;
23001;SDS011;11667;51.706;4.856;2023-02-28T05:51:39;11.12;;;6.03;;
23001;SDS011;11667;51.706;4.856;2023-02-28T05:54:09;12.90;;;5.87;;
23001;SDS011;11667;51.706;4.856;2023-02-28T05:56:40;10.55;;;5.85;;
23001;SDS011;11667;51.706;4.856;2023-02-28T05:59:11;12.10;;;6.63;;
23001;SDS011;11667;51.706;4.856;2023-02-28T06:01:42;11.38;;;5.80;;
23001;SDS011;11667;51.706;4.856;2023-02-28T06:04:15;11.97;;;5.95;;
23001;SDS011;11667;51.706;4.856;2023-02-28T06:06:48;11.65;;;5.72;;
23001;SDS011;11667;51.706;4.856;2023-02-28T06:09:18;10.08;;;5.80;;
23001;SDS011;11667;51.706;4.856;2023-02-28T06:11:47;10.08;;;5.50;;
23001;SDS011;11667;51.706;4.856;2023-02-28T06:14:17;9.65;;;5.80;;
23001;SDS011;11667;51.706;4.856;2023-02-28T06:16:47;10.32;;;5.58;;
23001;SDS011;11667;51.706;4.856;2023-02-28T06:19:17;9.30;;;5.08;;
23001;SDS011;11667;51.706;4.856;2023-02-28T06:21:48;9.25;;;5.17;;
23001;SDS011;11667;51.706;4.856;2023-02-28T06:24:19;8.85;;;5.12;;
23001;SDS011;11667;51.706;4.856;2023-02-28T06:26:49;11.10;;;4.60;;
23001;SDS011;11667;51.706;4.856;2023-02-28T06:29:19;10.65;;;5.03;;
23001;SDS011;11667;51.706;4.856;2023-02-28T06:31:48;11.18;;;5.05;;
23001;SDS011;11667;51.706;4.856;2023-02-28T06:34:17;7.83;;;4.72;;
23001;SDS011;11667;51.706;4.856;2023-02-28T06:36:47;10.10;;;5.53;;
23001;SDS011;11667;51.706;4.856;2023-02-28T06:39:19;11.45;;;4.85;;
23001;SDS011;11667;51.706;4.856;2023-02-28T06:41:49;8.15;;;4.90;;
23001;SDS011;11667;51.706;4.856;2023-02-28T06:44:22;8.58;;;4.80;;
23001;SDS011;11667;51.706;4.856;2023-02-28T06:46:51;8.33;;;4.90;;
23001;SDS011;11667;51.706;4.856;2023-02-28T06:49:21;8.40;;;4.70;;
23001;SDS011;11667;51.706;4.856;2023-02-28T06:51:50;7.80;;;4.50;;
23001;SDS011;11667;51.706;4.856;2023-02-28T06:54:20;7.65;;;4.25;;
23001;SDS011;11667;51.706;4.856;2023-02-28T06:56:49;8.13;;;4.50;;
23001;SDS011;11667;51.706;4.856;2023-02-28T06:59:19;7.22;;;4.28;;
23001;SDS011;11667;51.706;4.856;2023-02-28T07:01:49;7.70;;;3.90;;
23001;SDS011;11667;51.706;4.856;2023-02-28T07:04:18;8.23;;;4.25;;
23001;SDS011;11667;51.706;4.856;2023-02-28T07:06:48;9.88;;;4.17;;
23001;SDS011;11667;51.706;4.856;2023-02-28T07:09:17;9.05;;;4.25;;
23001;SDS011;11667;51.706;4.856;2023-02-28T07:11:47;9.73;;;4.35;;
23001;SDS011;11667;51.706;4.856;2023-02-28T07:14:17;8.28;;;4.67;;
23001;SDS011;11667;51.706;4.856;2023-02-28T07:16:46;9.83;;;4.58;;
23001;SDS011;11667;51.706;4.856;2023-02-28T07:19:15;9.95;;;5.25;;
23001;SDS011;11667;51.706;4.856;2023-02-28T07:21:44;6.95;;;4.60;;
23001;SDS011;11667;51.706;4.856;2023-02-28T07:24:14;9.05;;;5.15;;
23001;SDS011;11667;51.706;4.856;2023-02-28T07:26:45;8.63;;;4.83;;
23001;SDS011;11667;51.706;4.856;2023-02-28T07:29:14;12.18;;;4.90;;
23001;SDS011;11667;51.706;4.856;2023-02-28T07:31:44;11.97;;;5.08;;
23001;SDS011;11667;51.706;4.856;2023-02-28T07:34:14;10.85;;;5.03;;
23001;SDS011;11667;51.706;4.856;2023-02-28T07:36:43;9.35;;;4.92;;
23001;SDS011;11667;51.706;4.856;2023-02-28T07:39:13;11.93;;;5.10;;
23001;SDS011;11667;51.706;4.856;2023-02-28T07:41:42;12.82;;;5.45;;
23001;SDS011;11667;51.706;4.856;2023-02-28T07:44:11;12.65;;;6.10;;
23001;SDS011;11667;51.706;4.856;2023-02-28T07:46:41;9.80;;;5.45;;
23001;SDS011;11667;51.706;4.856;2023-02-28T07:49:10;11.83;;;5.35;;
23001;SDS011;11667;51.706;4.856;2023-02-28T07:51:39;9.48;;;5.50;;
23001;SDS011;11667;51.706;4.856;2023-02-28T07:54:09;15.38;;;7.75;;
23001;SDS011;11667;51.706;4.856;2023-02-28T07:56:38;22.95;;;10.78;;
23001;SDS011;11667;51.706;4.856;2023-02-28T07:59:08;17.95;;;9.63;;
23001;SDS011;11667;51.706;4.856;2023-02-28T08:01:37;14.58;;;5.97;;
23001;SDS011;11667;51.706;4.856;2023-02-28T08:04:07;13.20;;;6.58;;
23001;SDS011;11667;51.706;4.856;2023-02-28T08:06:36;13.58;;;5.92;;
23001;SDS011;11667;51.706;4.856;2023-02-28T08:09:06;17.60;;;5.42;;
23001;SDS011;11667;51.706;4.856;2023-02-28T08:11:35;8.78;;;4.70;;
23001;SDS011;11667;51.706;4.856;2023-02-28T08:14:05;14.33;;;6.47;;
23001;SDS011;11667;51.706;4.856;2023-02-28T08:16:34;20.27;;;8.20;;
23001;SDS011;11667;51.706;4.856;2023-02-28T08:19:04;23.98;;;10.25;;
23001;SDS011;11667;51.706;4.856;2023-02-28T08:21:33;23.87;;;10.05;;
23001;SDS011;11667;51.706;4.856;2023-02-28T08:24:03;19.77;;;8.03;;
23001;SDS011;11667;51.706;4.856;2023-02-28T08:26:33;14.53;;;6.55;;
23001;SDS011;11667;51.706;4.856;2023-02-28T08:29:02;11.60;;;5.50;;
23001;SDS011;11667;51.706;4.856;2023-02-28T08:31:32;10.05;;;5.10;;
23001;SDS011;11667;51.706;4.856;2023-02-28T08:34:06;9.90;;;4.72;;
23001;SDS011;11667;51.706;4.856;2023-02-28T08:36:39;8.10;;;4.83;;
23001;SDS011;11667;51.706;4.856;2023-02-28T08:39:11;7.53;;;5.05;;
23001;SDS011;11667;51.706;4.856;2023-02-28T08:41:41;8.00;;;5.00;;
23001;SDS011;11667;51.706;4.856;2023-02-28T08:44:12;10.53;;;5.75;;
23001;SDS011;11667;51.706;4.856;2023-02-28T08:46:41;10.28;;;4.65;;
23001;SDS011;11667;51.706;4.856;2023-02-28T08:49:10;8.88;;;5.20;;
23001;SDS011;11667;51.706;4.856;2023-02-28T08:51:40;9.13;;;5.25;;
23001;SDS011;11667;51.706;4.856;2023-02-28T08:54:09;8.20;;;4.85;;
23001;SDS011;11667;51.706;4.856;2023-02-28T08:56:40;8.30;;;5.00;;
23001;SDS011;11667;51.706;4.856;2023-02-28T08:59:09;7.12;;;4.90;;
23001;SDS011;11667;51.706;4.856;2023-02-28T09:01:38;7.67;;;4.78;;
23001;SDS011;11667;51.706;4.856;2023-02-28T09:04:09;6.22;;;4.12;;
23001;SDS011;11667;51.706;4.856;2023-02-28T09:06:40;8.15;;;5.03;;
23001;SDS011;11667;51.706;4.856;2023-02-28T09:09:10;9.20;;;4.90;;
23001;SDS011;11667;51.706;4.856;2023-02-28T09:11:39;6.78;;;4.15;;
23001;SDS011;11667;51.706;4.856;2023-02-28T09:14:10;8.65;;;4.60;;
23001;SDS011;11667;51.706;4.856;2023-02-28T09:16:39;9.78;;;4.53;;
23001;SDS011;11667;51.706;4.856;2023-02-28T09:19:12;8.70;;;4.70;;
23001;SDS011;11667;51.706;4.856;2023-02-28T09:21:42;8.78;;;4.40;;
23001;SDS011;11667;51.706;4.856;2023-02-28T09:24:11;8.35;;;4.50;;
23001;SDS011;11667;51.706;4.856;2023-02-28T09:26:42;6.08;;;3.40;;
23001;SDS011;11667;51.706;4.856;2023-02-28T09:29:14;4.78;;;2.90;;
23001;SDS011;11667;51.706;4.856;2023-02-28T09:31:44;3.85;;;2.27;;
23001;SDS011;11667;51.706;4.856;2023-02-28T09:34:14;3.87;;;2.30;;
23001;SDS011;11667;51.706;4.856;2023-02-28T09:36:45;2.98;;;2.20;;
23001;SDS011;11667;51.706;4.856;2023-02-28T09:39:15;3.52;;;2.30;;
23001;SDS011;11667;51.706;4.856;2023-02-28T09:41:45;3.62;;;2.20;;
23001;SDS011;11667;51.706;4.856;2023-02-28T09:44:42;2.50;;;2.00;;
23001;SDS011;11667;51.706;4.856;2023-02-28T09:47:13;4.45;;;2.17;;
23001;SDS011;11667;51.706;4.856;2023-02-28T09:49:47;3.22;;;2.25;;
23001;SDS011;11667;51.706;4.856;2023-02-28T09:52:18;3.52;;;2.50;;
23001;SDS011;11667;51.706;4.856;2023-02-28T09:54:49;4.30;;;2.42;;
23001;SDS011;11667;51.706;4.856;2023-02-28T09:57:29;5.42;;;2.50;;
23001;SDS011;11667;51.706;4.856;2023-02-28T10:08:38;4.65;;;2.80;;
23001;SDS011;11667;51.706;4.856;2023-02-28T10:11:15;3.92;;;2.95;;
23001;SDS011;11667;51.706;4.856;2023-02-28T10:16:22;3.95;;;2.60;;
23001;SDS011;11667;51.706;4.856;2023-02-28T10:18:57;4.90;;;2.60;;
23001;SDS011;11667;51.706;4.856;2023-02-28T10:21:37;3.87;;;2.47;;
23001;SDS011;11667;51.706;4.856;2023-02-28T10:24:09;4.62;;;2.70;;
23001;SDS011;11667;51.706;4.856;2023-02-28T10:26:43;3.90;;;2.20;;
23001;SDS011;11667;51.706;4.856;2023-02-28T10:29:13;3.83;;;2.45;;
23001;SDS011;11667;51.706;4.856;2023-02-28T10:31:43;4.00;;;2.12;;
23001;SDS011;11667;51.706;4.856;2023-02-28T10:34:13;2.60;;;2.00;;
23001;SDS011;11667;51.706;4.856;2023-02-28T10:36:42;3.67;;;2.30;;
23001;SDS011;11667;51.706;4.856;2023-02-28T10:42:23;3.12;;;2.10;;
23001;SDS011;11667;51.706;4.856;2023-02-28T10:45:13;2.85;;;2.00;;
23001;SDS011;11667;51.706;4.856;2023-02-28T10:47:55;3.33;;;2.15;;
23001;SDS011;11667;51.706;4.856;2023-02-28T10:50:26;3.35;;;2.00;;
23001;SDS011;11667;51.706;4.856;2023-02-28T10:55:57;2.52;;;2.27;;
23001;SDS011;11667;51.706;4.856;2023-02-28T10:58:41;4.03;;;2.10;;
23001;SDS011;11667;51.706;4.856;2023-02-28T11:01:21;3.10;;;2.30;;
23001;SDS011;11667;51.706;4.856;2023-02-28T11:07:01;3.70;;;2.10;;
23001;SDS011;11667;51.706;4.856;2023-02-28T11:12:07;3.33;;;2.02;;
23001;SDS011;11667;51.706;4.856;2023-02-28T11:14:40;3.52;;;2.08;;
23001;SDS011;11667;51.706;4.856;2023-02-28T11:17:14;3.37;;;2.05;;
23001;SDS011;11667;51.706;4.856;2023-02-28T11:22:21;3.77;;;2.30;;
23001;SDS011;11667;51.706;4.856;2023-02-28T11:24:52;6.85;;;2.33;;
23001;SDS011;11667;51.706;4.856;2023-02-28T11:30:02;4.08;;;2.17;;
23001;SDS011;11667;51.706;4.856;2023-02-28T11:32:32;2.35;;;2.05;;
23001;SDS011;11667;51.706;4.856;2023-02-28T11:35:03;3.25;;;2.30;;
23001;SDS011;11667;51.706;4.856;2023-02-28T11:37:41;4.05;;;2.25;;
23001;SDS011;11667;51.706;4.856;2023-02-28T11:40:15;2.85;;;2.05;;
23001;SDS011;11667;51.706;4.856;2023-02-28T11:42:53;3.22;;;2.40;;
23001;SDS011;11667;51.706;4.856;2023-02-28T11:55:59;5.35;;;2.60;;
23001;SDS011;11667;51.706;4.856;2023-02-28T12:04:45;2.70;;;2.20;;
23001;SDS011;11667;51.706;4.856;2023-02-28T12:11:52;4.33;;;2.60;;
23001;SDS011;11667;51.706;4.856;2023-02-28T12:28:01;3.35;;;2.50;;
23001;SDS011;11667;51.706;4.856;2023-02-28T12:30:32;3.27;;;2.55;;
23001;SDS011;11667;51.706;4.856;2023-02-28T12:33:05;5.28;;;3.50;;
23001;SDS011;11667;51.706;4.856;2023-02-28T12:38:47;3.87;;;2.50;;
23001;SDS011;11667;51.706;4.856;2023-02-28T12:41:33;3.37;;;2.40;;
23001;SDS011;11667;51.706;4.856;2023-02-28T12:44:30;4.92;;;2.70;;
23001;SDS011;11667;51.706;4.856;2023-02-28T12:46:49;5.10;;;2.67;;
23001;SDS011;11667;51.706;4.856;2023-02-28T12:49:27;2.85;;;2.20;;
23001;SDS011;11667;51.706;4.856;2023-02-28T12:52:03;3.55;;;2.50;;
23001;SDS011;11667;51.706;4.856;2023-02-28T12:54:44;4.50;;;2.60;;
23001;SDS011;11667;51.706;4.856;2023-02-28T12:57:17;4.20;;;2.80;;
23001;SDS011;11667;51.706;4.856;2023-02-28T12:59:51;4.83;;;3.00;;
23001;SDS011;11667;51.706;4.856;2023-02-28T13:02:37;4.55;;;3.55;;
23001;SDS011;11667;51.706;4.856;2023-02-28T13:10:44;3.75;;;2.52;;
23001;SDS011;11667;51.706;4.856;2023-02-28T13:13:17;4.83;;;3.00;;
23001;SDS011;11667;51.706;4.856;2023-02-28T13:16:07;5.08;;;2.87;;
23001;SDS011;11667;51.706;4.856;2023-02-28T13:18:45;5.05;;;2.90;;
23001;SDS011;11667;51.706;4.856;2023-02-28T13:23:57;5.42;;;3.15;;
23001;SDS011;11667;51.706;4.856;2023-02-28T13:34:38;3.92;;;2.90;;
23001;SDS011;11667;51.706;4.856;2023-02-28T13:45:20;4.40;;;2.77;;
23001;SDS011;11667;51.706;4.856;2023-02-28T13:50:33;5.95;;;3.80;;
23001;SDS011;11667;51.706;4.856;2023-02-28T13:56:04;7.10;;;3.37;;
23001;SDS011;11667;51.706;4.856;2023-02-28T13:58:55;6.58;;;4.20;;
23001;SDS011;11667;51.706;4.856;2023-02-28T14:07:21;5.25;;;3.12;;
23001;SDS011;11667;51.706;4.856;2023-02-28T14:10:05;5.80;;;3.47;;
23001;SDS011;11667;51.706;4.856;2023-02-28T14:15:42;5.95;;;3.35;;
23001;SDS011;11667;51.706;4.856;2023-02-28T14:18:15;9.20;;;3.42;;
23001;SDS011;11667;51.706;4.856;2023-02-28T14:20:57;4.80;;;3.47;;
23001;SDS011;11667;51.706;4.856;2023-02-28T14:29:29;4.97;;;3.33;;
23001;SDS011;11667;51.706;4.856;2023-02-28T14:32:27;7.85;;;4.00;;
23001;SDS011;11667;51.706;4.856;2023-02-28T14:38:18;6.30;;;4.10;;
23001;SDS011;11667;51.706;4.856;2023-02-28T14:40:50;4.20;;;3.08;;
23001;SDS011;11667;51.706;4.856;2023-02-28T14:43:21;4.75;;;3.25;;
23001;SDS011;11667;51.706;4.856;2023-02-28T14:45:57;5.10;;;3.20;;
23001;SDS011;11667;51.706;4.856;2023-02-28T14:48:26;5.12;;;3.40;;
23001;SDS011;11667;51.706;4.856;2023-02-28T14:51:01;4.30;;;3.47;;
23001;SDS011;11667;51.706;4.856;2023-02-28T14:53:28;6.08;;;3.52;;
23001;SDS011;11667;51.706;4.856;2023-02-28T14:55:58;5.78;;;3.87;;
23001;SDS011;11667;51.706;4.856;2023-02-28T14:58:29;4.67;;;3.40;;
23001;SDS011;11667;51.706;4.856;2023-02-28T15:01:01;7.00;;;3.70;;
23001;SDS011;11667;51.706;4.856;2023-02-28T15:03:35;4.62;;;3.47;;
23001;SDS011;11667;51.706;4.856;2023-02-28T15:06:12;7.30;;;3.80;;
23001;SDS011;11667;51.706;4.856;2023-02-28T15:08:46;8.55;;;4.72;;
23001;SDS011;11667;51.706;4.856;2023-02-28T15:11:19;5.37;;;3.75;;
23001;SDS011;11667;51.706;4.856;2023-02-28T15:13:52;7.60;;;3.83;;
23001;SDS011;11667;51.706;4.856;2023-02-28T15:16:26;4.60;;;3.40;;
23001;SDS011;11667;51.706;4.856;2023-02-28T15:19:07;7.33;;;3.50;;
23001;SDS011;11667;51.706;4.856;2023-02-28T15:21:45;4.37;;;3.42;;
23001;SDS011;11667;51.706;4.856;2023-02-28T15:27:06;6.05;;;3.95;;
23001;SDS011;11667;51.706;4.856;2023-02-28T15:29:49;8.48;;;4.60;;
23001;SDS011;11667;51.706;4.856;2023-02-28T15:32:32;6.05;;;3.77;;
23001;SDS011;11667;51.706;4.856;2023-02-28T15:35:18;8.10;;;4.35;;
23001;SDS011;11667;51.706;4.856;2023-02-28T15:37:58;10.85;;;3.90;;
23001;SDS011;11667;51.706;4.856;2023-02-28T15:40:31;6.05;;;3.95;;
23001;SDS011;11667;51.706;4.856;2023-02-28T15:48:19;6.55;;;3.90;;
23001;SDS011;11667;51.706;4.856;2023-02-28T15:50:51;6.10;;;3.95;;
23001;SDS011;11667;51.706;4.856;2023-02-28T15:53:29;6.53;;;3.87;;
23001;SDS011;11667;51.706;4.856;2023-02-28T15:56:21;6.80;;;3.90;;
23001;SDS011;11667;51.706;4.856;2023-02-28T15:58:53;8.60;;;4.08;;
23001;SDS011;11667;51.706;4.856;2023-02-28T16:01:25;6.62;;;4.20;;
23001;SDS011;11667;51.706;4.856;2023-02-28T16:04:19;4.83;;;3.60;;
23001;SDS011;11667;51.706;4.856;2023-02-28T16:09:29;4.83;;;3.47;;
23001;SDS011;11667;51.706;4.856;2023-02-28T16:12:02;6.40;;;3.30;;
23001;SDS011;11667;51.706;4.856;2023-02-28T16:14:32;7.40;;;4.40;;
23001;SDS011;11667;51.706;4.856;2023-02-28T16:17:04;9.68;;;5.72;;
23001;SDS011;11667;51.706;4.856;2023-02-28T16:19:36;5.40;;;3.95;;
23001;SDS011;11667;51.706;4.856;2023-02-28T16:22:05;6.10;;;3.67;;
23001;SDS011;11667;51.706;4.856;2023-02-28T16:24:35;5.85;;;3.37;;
23001;SDS011;11667;51.706;4.856;2023-02-28T16:27:06;7.03;;;3.58;;
23001;SDS011;11667;51.706;4.856;2023-02-28T16:29:35;6.67;;;3.42;;
23001;SDS011;11667;51.706;4.856;2023-02-28T16:32:06;5.55;;;3.40;;
23001;SDS011;11667;51.706;4.856;2023-02-28T16:34:36;7.55;;;4.03;;
23001;SDS011;11667;51.706;4.856;2023-02-28T16:37:10;7.28;;;3.65;;
23001;SDS011;11667;51.706;4.856;2023-02-28T16:39:43;5.70;;;3.72;;
23001;SDS011;11667;51.706;4.856;2023-02-28T16:42:27;4.95;;;3.47;;
23001;SDS011;11667;51.706;4.856;2023-02-28T16:44:57;5.17;;;3.45;;
23001;SDS011;11667;51.706;4.856;2023-02-28T16:47:27;6.08;;;3.45;;
23001;SDS011;11667;51.706;4.856;2023-02-28T16:49:56;6.08;;;4.00;;
23001;SDS011;11667;51.706;4.856;2023-02-28T16:52:26;5.00;;;3.55;;
23001;SDS011;11667;51.706;4.856;2023-02-28T16:54:55;4.90;;;3.45;;
23001;SDS011;11667;51.706;4.856;2023-02-28T16:57:24;4.67;;;3.40;;
23001;SDS011;11667;51.706;4.856;2023-02-28T16:59:54;6.60;;;3.25;;
23001;SDS011;11667;51.706;4.856;2023-02-28T17:02:23;6.62;;;3.52;;
23001;SDS011;11667;51.706;4.856;2023-02-28T17:04:53;6.70;;;3.60;;
23001;SDS011;11667;51.706;4.856;2023-02-28T17:07:22;6.67;;;3.98;;
23001;SDS011;11667;51.706;4.856;2023-02-28T17:09:51;6.90;;;3.80;;
23001;SDS011;11667;51.706;4.856;2023-02-28T17:12:21;6.85;;;3.72;;
23001;SDS011;11667;51.706;4.856;2023-02-28T17:14:50;5.15;;;3.75;;
23001;SDS011;11667;51.706;4.856;2023-02-28T17:17:21;8.83;;;4.30;;
23001;SDS011;11667;51.706;4.856;2023-02-28T17:19:50;9.00;;;4.37;;
23001;SDS011;11667;51.706;4.856;2023-02-28T17:22:19;7.95;;;4.80;;
23001;SDS011;11667;51.706;4.856;2023-02-28T17:24:49;7.30;;;4.30;;
23001;SDS011;11667;51.706;4.856;2023-02-28T17:27:19;7.20;;;4.25;;
23001;SDS011;11667;51.706;4.856;2023-02-28T17:29:48;6.42;;;4.08;;
23001;SDS011;11667;51.706;4.856;2023-02-28T17:32:17;8.15;;;4.10;;
23001;SDS011;11667;51.706;4.856;2023-02-28T17:34:47;7.62;;;4.30;;
23001;SDS011;11667;51.706;4.856;2023-02-28T17:37:16;8.18;;;4.70;;
23001;SDS011;11667;51.706;4.856;2023-02-28T17:39:45;12.75;;;6.00;;
23001;SDS011;11667;51.706;4.856;2023-02-28T17:42:15;16.85;;;8.13;;
23001;SDS011;11667;51.706;4.856;2023-02-28T17:44:44;18.70;;;9.20;;
23001;SDS011;11667;51.706;4.856;2023-02-28T17:47:14;18.00;;;9.60;;
23001;SDS011;11667;51.706;4.856;2023-02-28T17:49:43;19.45;;;8.93;;
23001;SDS011;11667;51.706;4.856;2023-02-28T17:52:12;16.10;;;8.08;;
23001;SDS011;11667;51.706;4.856;2023-02-28T17:54:42;14.03;;;6.85;;